Time;durP1;ratioP1;P1;durP2;ratioP2;P2;SDS_P1;SDS_P2;PMS_P1;PMS_P2;Temp;Humidity;BMP_temperature;BMP_pressure;BME280_temperature;BME280_humidity;BME280_pressure;Samples;Min_cycle;Max_cycle;Signal;HPM_P1;HPM_P2
2021/11/09 00:01:51;;;;;;;22.23;13.63;;;;;;;10.62;68.43;95113.09;5091707;28;20107;-70
2021/11/09 00:04:19;;;;;;;23.02;14.30;;;;;;;10.66;68.26;95115.31;5065187;28;20091;-70
2021/11/09 00:06:54;;;;;;;21.42;15.15;;;;;;;10.62;68.62;95126.91;5071161;28;20047;-70
2021/11/09 00:09:19;;;;;;;22.33;15.07;;;;;;;10.62;68.28;95115.69;5069965;28;20017;-70
2021/11/09 00:11:45;;;;;;;21.35;14.27;;;;;;;10.63;68.47;95115.56;5069826;28;20040;-70
2021/11/09 00:14:10;;;;;;;21.23;14.70;;;;;;;10.57;68.57;95104.81;5053186;28;20021;-70
2021/11/09 00:16:36;;;;;;;19.90;13.35;;;;;;;10.61;68.60;95094.06;5069762;28;20032;-70
2021/11/09 00:19:01;;;;;;;22.08;13.23;;;;;;;10.62;68.24;95089.72;5053169;28;20028;-69
2021/11/09 00:21:27;;;;;;;22.08;14.20;;;;;;;10.57;68.57;95089.25;5052948;28;20086;-69
2021/11/09 00:23:53;;;;;;;21.95;14.43;;;;;;;10.63;68.77;95106.94;5053075;28;20037;-70
2021/11/09 00:26:18;;;;;;;22.10;14.20;;;;;;;10.64;68.37;95114.63;5069457;28;20044;-70
2021/11/09 00:28:44;;;;;;;18.58;13.07;;;;;;;10.66;68.37;95115.31;5069607;28;20081;-70
2021/11/09 00:31:09;;;;;;;21.02;13.18;;;;;;;10.68;68.53;95116.03;5053081;28;20379;-69
2021/11/09 00:33:35;;;;;;;19.30;13.02;;;;;;;10.63;68.42;95101.75;5036297;28;20033;-69
2021/11/09 00:36:00;;;;;;;19.38;13.85;;;;;;;10.71;68.33;95120.97;5069477;28;20025;-69
2021/11/09 00:38:26;;;;;;;22.52;13.73;;;;;;;10.65;68.31;95115.44;5069600;28;20086;-69
2021/11/09 00:40:53;;;;;;;20.00;13.98;;;;;;;10.62;68.08;95111.31;5069518;28;20025;-70
2021/11/09 00:43:19;;;;;;;21.88;13.90;;;;;;;10.56;67.98;95111.81;5069443;28;20036;-69
2021/11/09 00:45:45;;;;;;;20.45;12.10;;;;;;;10.47;67.86;95107.31;5069412;28;20034;-70
2021/11/09 00:48:10;;;;;;;22.63;13.95;;;;;;;10.37;68.00;95112.41;5052947;28;20086;-69
2021/11/09 00:50:37;;;;;;;20.13;11.68;;;;;;;10.26;68.48;95115.78;5069450;28;20544;-69
2021/11/09 00:53:03;;;;;;;17.48;12.38;;;;;;;10.20;68.45;95124.06;5052842;28;20036;-69
2021/11/09 00:55:28;;;;;;;18.08;11.85;;;;;;;10.15;68.45;95115.78;5036121;28;20028;-69
2021/11/09 00:57:54;;;;;;;17.83;11.48;;;;;;;10.11;68.82;95111.75;5069375;28;20041;-69
2021/11/09 01:00:22;;;;;;;18.35;11.68;;;;;;;10.07;68.82;95111.16;5069163;28;20052;-70
2021/11/09 01:02:49;;;;;;;19.33;13.27;;;;;;;10.09;68.88;95111.06;5069504;28;20037;-68
2021/11/09 01:05:20;;;;;;;20.52;13.70;;;;;;;9.93;68.89;95089.81;5085849;28;20024;-70
2021/11/09 01:07:47;;;;;;;21.45;13.55;;;;;;;9.94;68.97;95091.44;5076826;28;20128;-69
2021/11/09 01:10:12;;;;;;;23.27;14.30;;;;;;;9.93;68.81;95088.03;5076865;28;20036;-69
2021/11/09 01:12:38;;;;;;;19.88;12.98;;;;;;;9.79;69.35;95098.63;5076922;28;20417;-69
2021/11/09 01:15:05;;;;;;;18.17;13.15;;;;;;;9.67;69.58;95097.78;5093441;28;20416;-69
2021/11/09 01:17:30;;;;;;;18.48;13.00;;;;;;;9.71;69.71;95119.94;5076628;28;20134;-69
2021/11/09 01:19:56;;;;;;;20.70;13.98;;;;;;;9.68;69.34;95127.97;5076482;28;20047;-69
2021/11/09 01:22:21;;;;;;;20.23;13.77;;;;;;;9.63;69.73;95130.06;5093248;28;20461;-69
2021/11/09 01:24:47;;;;;;;19.88;13.73;;;;;;;9.61;69.49;95135.38;5093247;28;20486;-69
2021/11/09 01:27:12;;;;;;;21.67;14.40;;;;;;;9.53;69.96;95144.69;5094564;28;20047;-68
2021/11/09 01:29:38;;;;;;;24.15;13.73;;;;;;;9.44;69.67;95137.56;5093152;28;20092;-68
2021/11/09 01:32:04;;;;;;;20.38;14.05;;;;;;;9.45;69.89;95144.41;5093341;28;20036;-69
2021/11/09 01:34:29;;;;;;;19.85;13.65;;;;;;;9.34;69.95;95142.59;5094228;28;20024;-68
2021/11/09 01:36:55;;;;;;;19.58;13.50;;;;;;;9.29;69.54;95155.06;5076116;28;20085;-69
2021/11/09 01:39:20;;;;;;;19.50;13.15;;;;;;;9.10;69.63;95142.59;5076109;28;20032;-69
2021/11/09 01:41:46;;;;;;;23.10;13.90;;;;;;;9.07;69.60;95163.53;5076107;28;20058;-69
2021/11/09 01:44:12;;;;;;;23.05;14.02;;;;;;;8.92;69.38;95158.50;5094135;28;20016;-69
2021/11/09 01:46:38;;;;;;;21.55;13.80;;;;;;;8.89;69.57;95163.91;5075915;28;20064;-69
2021/11/09 01:49:03;;;;;;;23.60;14.07;;;;;;;8.82;70.19;95159.28;5092872;28;20058;-70
2021/11/09 01:51:29;;;;;;;19.83;12.63;;;;;;;8.80;70.52;95158.53;5094135;28;20032;-69
2021/11/09 01:53:55;;;;;;;22.15;14.15;;;;;;;8.77;70.61;95164.75;5075878;28;20042;-69
2021/11/09 01:56:23;;;;;;;21.10;13.02;;;;;;;8.75;70.52;95165.81;5075708;28;20105;-69
2021/11/09 01:58:49;;;;;;;18.00;12.90;;;;;;;8.70;70.47;95161.78;5075663;28;20028;-69
2021/11/09 02:01:16;;;;;;;24.10;13.93;;;;;;;8.60;70.68;95153.00;5092552;28;20532;-69
2021/11/09 02:03:43;;;;;;;19.20;12.68;;;;;;;8.71;70.92;95165.19;5088647;28;20020;-69
2021/11/09 02:06:09;;;;;;;16.98;11.85;;;;;;;8.75;70.70;95177.00;5055573;28;20058;-68
2021/11/09 02:08:34;;;;;;;18.30;12.45;;;;;;;8.77;71.39;95169.94;5055388;28;20025;-68
2021/11/09 02:11:00;;;;;;;21.98;12.38;;;;;;;8.79;70.95;95177.63;5072031;28;20059;-69
2021/11/09 02:13:26;;;;;;;18.50;12.20;;;;;;;8.81;71.11;95175.75;5055414;28;20482;-68
2021/11/09 02:15:52;;;;;;;18.55;11.63;;;;;;;8.80;71.50;95169.72;5055476;28;20650;-69
2021/11/09 02:18:17;;;;;;;18.52;11.75;;;;;;;8.80;71.13;95171.50;5071876;28;20086;-69
2021/11/09 02:20:56;;;;;;;18.45;11.77;;;;;;;8.86;71.25;95184.00;5055331;28;20468;-69
2021/11/09 02:23:22;;;;;;;18.13;11.52;;;;;;;8.85;71.30;95178.00;5071947;28;20033;-69
2021/11/09 02:25:47;;;;;;;18.65;11.45;;;;;;;8.82;71.26;95193.78;5071858;28;20024;-69
2021/11/09 02:28:13;;;;;;;15.68;11.45;;;;;;;8.79;71.13;95194.00;5072057;28;20039;-69
2021/11/09 02:30:38;;;;;;;21.48;13.40;;;;;;;8.66;71.26;95188.00;5055074;28;20028;-69
2021/11/09 02:33:04;;;;;;;16.92;11.68;;;;;;;8.64;71.50;95188.13;5071948;28;20029;-69
2021/11/09 02:35:29;;;;;;;21.05;13.70;;;;;;;8.63;72.24;95203.75;5071569;28;20043;-69
2021/11/09 02:37:56;;;;;;;18.88;12.15;;;;;;;8.55;72.06;95208.63;5071844;28;20028;-70
2021/11/09 02:40:21;;;;;;;21.55;12.25;;;;;;;8.42;71.93;95196.53;5071595;28;20033;-69
2021/11/09 02:42:49;;;;;;;21.67;12.05;;;;;;;8.39;71.66;95201.91;5071779;28;20040;-69
2021/11/09 02:45:20;;;;;;;18.88;12.73;;;;;;;8.39;71.26;95216.63;5071419;28;20035;-69
2021/11/09 02:47:53;;;;;;;18.08;11.40;;;;;;;8.34;71.63;95216.91;5039898;28;20032;-69
2021/11/09 02:50:21;;;;;;;18.73;12.65;;;;;;;8.33;71.94;95219.56;5055105;28;20403;-69
2021/11/09 02:52:54;;;;;;;19.33;12.95;;;;;;;8.35;72.17;95226.31;5072950;28;20028;-69
2021/11/09 02:55:25;;;;;;;18.75;13.05;;;;;;;8.27;72.52;95213.06;5072524;28;20035;-69
2021/11/09 02:58:01;;;;;;;16.58;11.82;;;;;;;8.28;72.14;95206.97;5071586;28;20024;-69
2021/11/09 03:00:33;;;;;;;22.83;13.15;;;;;;;8.29;72.14;95204.25;5071208;28;20556;-70
2021/11/09 03:03:22;;;;;;;21.00;13.68;;;;;;;8.13;72.27;95180.34;5071436;28;20037;-69
2021/11/09 03:08:37;;;;;;;23.75;13.88;;;;;;;8.34;73.42;95200.53;5071172;28;20056;-70
2021/11/09 03:11:04;;;;;;;19.55;12.57;;;;;;;8.32;73.41;95200.63;5071113;28;20052;-70
2021/11/09 03:13:29;;;;;;;19.83;13.13;;;;;;;8.25;73.28;95189.06;5070922;28;20052;-69
2021/11/09 03:16:00;;;;;;;19.88;12.60;;;;;;;8.39;73.18;95207.09;5071943;28;20514;-69
2021/11/09 03:18:27;;;;;;;20.20;12.98;;;;;;;8.39;73.07;95212.28;5071001;28;20456;-69
2021/11/09 03:40:24;;;;;;;22.70;13.07;;;;;;;8.41;73.52;95215.59;5070577;28;20023;-69
2021/11/09 03:45:34;;;;;;;20.52;13.73;;;;;;;8.42;73.57;95231.94;5070588;28;20035;-69
2021/11/09 03:48:33;;;;;;;23.13;14.35;;;;;;;8.14;73.59;95197.53;5070379;28;20036;-70
2021/11/09 03:50:59;;;;;;;23.08;14.43;;;;;;;8.06;72.55;95203.22;5066793;28;20123;-68
2021/11/09 03:53:26;;;;;;;20.25;13.50;;;;;;;8.15;72.86;95232.81;5063237;28;20035;-68
2021/11/09 04:00:48;;;;;;;19.25;12.23;;;;;;;8.02;72.75;95222.47;5085841;28;20143;-69
2021/11/09 04:03:46;;;;;;;18.58;12.70;;;;;;;8.04;72.82;95243.88;5069872;28;20041;-69
2021/11/09 04:06:15;;;;;;;22.10;12.55;;;;;;;8.01;72.34;95249.25;5069385;28;20131;-69
2021/11/09 04:08:48;;;;;;;19.90;13.55;;;;;;;7.84;72.25;95229.69;5052833;28;20033;-70
2021/11/09 04:11:20;;;;;;;18.73;12.95;;;;;;;7.80;72.18;95241.16;5068978;28;20655;-70
2021/11/09 04:13:54;;;;;;;19.33;13.05;;;;;;;7.72;72.39;95252.94;5068436;28;20391;-69
2021/11/09 04:19:12;;;;;;;21.15;14.18;;;;;;;7.65;73.33;95243.91;5070529;28;20056;-68
2021/11/09 04:32:26;;;;;;;17.27;11.95;;;;;;;7.57;72.71;95229.69;5070386;28;20036;-69
2021/11/09 05:09:08;;;;;;;42.55;26.35;;;;;;;7.09;74.33;95280.97;5089004;28;20043;-68
2021/11/09 05:11:37;;;;;;;40.35;23.85;;;;;;;7.13;74.89;95292.81;5089539;28;20110;-68
2021/11/09 05:14:03;;;;;;;33.10;20.48;;;;;;;7.23;75.48;95295.63;5072368;28;20505;-72
2021/11/09 05:16:28;;;;;;;32.20;19.48;;;;;;;7.27;75.13;95299.69;5089148;28;20039;-72
2021/11/09 05:18:53;;;;;;;27.08;17.90;;;;;;;7.34;74.90;95300.97;5090645;28;20044;-72
2021/11/09 05:21:19;;;;;;;34.40;20.10;;;;;;;7.41;74.61;95297.97;5090407;28;20028;-72
2021/11/09 05:23:44;;;;;;;32.30;18.52;;;;;;;7.37;74.54;95293.00;5089447;28;20035;-72
2021/11/09 05:26:10;;;;;;;30.27;18.73;;;;;;;7.47;74.89;95315.72;5089132;28;20032;-72
2021/11/09 05:28:35;;;;;;;26.85;17.40;;;;;;;7.47;74.92;95301.03;5072323;28;20027;-72
2021/11/09 05:31:02;;;;;;;29.38;18.10;;;;;;;7.44;74.78;95283.13;5089077;28;20024;-73
2021/11/09 05:33:28;;;;;;;34.83;21.50;;;;;;;7.55;75.05;95298.78;5089062;28;20119;-73
2021/11/09 05:35:56;;;;;;;37.22;24.08;;;;;;;7.60;74.86;95291.59;5072277;28;20028;-73
2021/11/09 05:38:29;;;;;;;40.80;26.80;;;;;;;7.75;74.96;95320.81;5072656;28;20032;-72
2021/11/09 05:40:58;;;;;;;50.75;29.45;;;;;;;7.84;74.60;95332.31;5089062;28;20024;-72
2021/11/09 05:43:24;;;;;;;76.20;39.42;;;;;;;7.88;74.54;95341.53;5072825;28;20032;-72
2021/11/09 05:45:49;;;;;;;50.05;31.23;;;;;;;7.83;74.37;95328.91;5090239;28;20082;-73
2021/11/09 05:48:15;;;;;;;45.47;26.00;;;;;;;7.95;73.94;95326.47;5072415;28;20040;-72
2021/11/09 05:50:41;;;;;;;31.90;19.70;;;;;;;8.03;74.07;95334.56;5088814;28;20036;-72
2021/11/09 05:53:07;;;;;;;35.90;21.65;;;;;;;8.03;74.00;95335.38;5091034;28;20455;-72
2021/11/09 05:55:32;;;;;;;37.45;23.20;;;;;;;8.09;74.20;95351.44;5075582;28;20032;-72
2021/11/09 05:57:57;;;;;;;40.65;24.50;;;;;;;8.15;74.42;95364.00;5092879;28;20036;-73
2021/11/09 06:00:23;;;;;;;40.10;22.83;;;;;;;8.22;74.19;95367.84;5071933;28;20055;-73
2021/11/09 06:02:49;;;;;;;35.00;22.08;;;;;;;8.25;73.95;95370.25;5072432;28;20479;-75
2021/11/09 06:05:15;;;;;;;34.13;22.05;;;;;;;8.32;74.16;95379.25;5072153;28;20035;-73
2021/11/09 06:07:40;;;;;;;38.10;22.48;;;;;;;8.32;74.05;95376.66;5083836;28;20028;-73
2021/11/09 06:10:06;;;;;;;33.00;20.95;;;;;;;8.34;73.82;95379.97;5074923;28;20032;-73
2021/11/09 06:12:31;;;;;;;29.88;20.13;;;;;;;8.42;73.48;95376.94;5075472;28;20036;-73
2021/11/09 06:14:57;;;;;;;33.47;19.88;;;;;;;8.49;73.75;95391.13;5092212;28;20024;-73
2021/11/09 06:17:22;;;;;;;36.03;21.95;;;;;;;8.53;73.83;95395.19;5092313;28;20035;-73
2021/11/09 06:19:48;;;;;;;33.58;21.52;;;;;;;8.57;73.42;95385.44;5092290;28;20024;-75
2021/11/09 06:22:13;;;;;;;27.33;18.75;;;;;;;8.61;73.51;95384.31;5079807;28;20029;-73
2021/11/09 06:24:39;;;;;;;33.03;20.50;;;;;;;8.67;73.31;95376.16;5072657;28;20032;-73
2021/11/09 06:27:04;;;;;;;36.67;22.63;;;;;;;8.72;73.45;95392.22;5071585;28;20482;-73
2021/11/09 06:29:30;;;;;;;44.72;21.50;;;;;;;8.72;73.40;95366.31;5071748;28;20025;-73
2021/11/09 06:31:59;;;;;;;35.42;22.08;;;;;;;8.84;73.35;95375.84;5071923;28;20102;-73
2021/11/09 06:34:25;;;;;;;34.15;21.73;;;;;;;8.79;73.17;95358.97;5071712;28;20502;-73
2021/11/09 06:36:50;;;;;;;36.67;26.52;;;;;;;8.90;73.00;95367.66;5055198;28;20033;-73
2021/11/09 06:39:16;;;;;;;39.75;26.58;;;;;;;8.97;73.22;95377.59;5074937;28;20024;-73
2021/11/09 06:41:41;;;;;;;41.20;25.35;;;;;;;9.02;73.02;95378.94;5091631;28;20026;-73
2021/11/09 06:44:07;;;;;;;42.63;27.20;;;;;;;9.07;72.87;95370.88;5071479;28;20425;-73
2021/11/09 06:46:32;;;;;;;47.92;25.50;;;;;;;9.13;72.81;95393.78;5081802;28;20040;-73
2021/11/09 06:48:58;;;;;;;43.17;27.83;;;;;;;9.14;72.77;95398.06;5075040;28;20222;-73
2021/11/09 06:51:23;;;;;;;43.08;28.83;;;;;;;9.19;72.76;95393.34;5068047;28;20029;-74
2021/11/09 06:53:48;;;;;;;36.13;24.88;;;;;;;9.22;72.85;95397.50;5055024;28;20033;-73
2021/11/09 06:56:14;;;;;;;28.80;18.45;;;;;;;9.17;72.64;95395.25;5074841;28;20040;-74
2021/11/09 06:58:39;;;;;;;24.73;16.23;;;;;;;9.16;72.26;95398.75;5090573;28;20024;-73
2021/11/09 07:01:05;;;;;;;20.98;14.85;;;;;;;9.20;71.61;95394.22;5042321;28;20055;-74
2021/11/09 07:03:33;;;;;;;20.70;13.98;;;;;;;9.18;71.24;95396.91;5070596;28;20105;-72
2021/11/09 07:05:59;;;;;;;22.73;16.25;;;;;;;9.27;71.75;95406.63;5059975;28;20044;-72
2021/11/09 07:08:24;;;;;;;24.02;16.80;;;;;;;9.32;71.70;95406.31;5070981;28;20021;-72
2021/11/09 07:10:49;;;;;;;22.05;16.33;;;;;;;9.37;71.62;95394.69;5054140;28;20023;-72
2021/11/09 07:13:15;;;;;;;20.35;16.00;;;;;;;9.43;71.66;95395.22;5071134;28;20086;-72
2021/11/09 07:15:40;;;;;;;21.58;15.90;;;;;;;9.53;71.79;95411.81;5060526;28;20035;-72
2021/11/09 07:18:07;;;;;;;19.23;15.15;;;;;;;9.59;71.66;95401.81;5092805;28;20036;-72
2021/11/09 07:20:32;;;;;;;19.13;14.40;;;;;;;9.62;71.05;95400.78;5091999;28;20093;-72
2021/11/09 07:23:01;;;;;;;15.98;11.75;;;;;;;9.63;70.82;95397.25;5091138;28;20063;-72
2021/11/09 07:25:26;;;;;;;18.80;13.73;;;;;;;9.67;70.40;95419.47;5090692;28;20035;-72
2021/11/09 07:27:51;;;;;;;22.63;14.63;;;;;;;9.68;70.46;95418.50;5057619;28;20032;-74
2021/11/09 07:30:17;;;;;;;23.35;15.02;;;;;;;9.65;70.22;95416.13;5092085;28;20085;-73
2021/11/09 07:32:45;;;;;;;23.05;16.10;;;;;;;9.75;70.13;95426.69;5057478;28;20066;-73
2021/11/09 07:35:11;;;;;;;19.23;12.60;;;;;;;9.74;69.89;95431.06;5090770;28;20111;-73
2021/11/09 07:37:36;;;;;;;18.17;14.35;;;;;;;9.73;69.37;95437.19;5090582;28;20097;-73
2021/11/09 07:40:03;;;;;;;18.27;12.48;;;;;;;9.79;69.75;95459.28;5062147;28;20485;-73
2021/11/09 07:42:28;;;;;;;15.90;10.80;;;;;;;9.87;69.29;95462.19;5077178;28;20472;-73
2021/11/09 07:44:54;;;;;;;17.90;11.75;;;;;;;9.88;68.51;95463.81;5070432;28;20029;-73
2021/11/09 07:47:19;;;;;;;16.90;11.15;;;;;;;9.84;69.20;95463.22;5089258;28;20032;-73
2021/11/09 07:49:45;;;;;;;20.52;12.52;;;;;;;9.84;68.91;95467.59;5051232;28;20479;-72
2021/11/09 07:52:12;;;;;;;22.33;14.43;;;;;;;9.83;69.19;95471.94;5066630;28;20036;-74
2021/11/09 07:54:40;;;;;;;19.52;13.57;;;;;;;9.78;69.30;95468.84;5089312;28;20059;-73
2021/11/09 07:57:12;;;;;;;22.20;13.52;;;;;;;9.84;68.89;95477.97;5061975;28;20610;-74
2021/11/09 08:02:06;;;;;;;24.42;15.57;;;;;;;9.90;68.92;95500.88;5071523;28;20032;-73
2021/11/09 08:04:39;;;;;;;19.10;13.27;;;;;;;9.91;68.95;95507.72;5071231;28;20032;-73
2021/11/09 08:07:12;;;;;;;20.20;13.88;;;;;;;9.98;68.89;95510.75;5054605;28;20033;-73
2021/11/09 08:09:38;;;;;;;18.30;13.18;;;;;;;9.97;68.76;95503.88;5069998;28;20028;-73
2021/11/09 08:12:04;;;;;;;18.02;12.98;;;;;;;10.03;68.69;95524.25;5053219;28;20043;-73
2021/11/09 08:14:29;;;;;;;19.50;13.23;;;;;;;9.87;68.58;95502.88;5073956;28;20059;-74
2021/11/09 08:16:55;;;;;;;16.92;12.15;;;;;;;9.95;68.40;95534.31;5078856;28;20068;-73
2021/11/09 08:19:20;;;;;;;16.98;11.73;;;;;;;9.99;68.24;95551.34;5067031;28;20101;-73
2021/11/09 08:21:47;;;;;;;16.98;11.57;;;;;;;9.99;67.89;95554.75;5087106;28;20036;-73
2021/11/09 08:24:14;;;;;;;14.13;10.25;;;;;;;9.99;68.01;95556.53;5061442;28;20028;-73
2021/11/09 08:26:39;;;;;;;12.88;9.48;;;;;;;10.04;67.37;95567.41;5089801;28;20067;-73
2021/11/09 08:29:05;;;;;;;13.23;9.57;;;;;;;9.97;67.27;95567.03;5089949;28;20024;-73
2021/11/09 08:31:36;;;;;;;15.73;10.10;;;;;;;9.96;67.64;95554.13;5091113;28;20032;-73
2021/11/09 08:34:02;;;;;;;11.93;9.00;;;;;;;9.99;67.63;95549.56;5073326;28;20032;-73
2021/11/09 08:36:29;;;;;;;13.85;10.02;;;;;;;10.04;67.50;95563.06;5089593;28;20036;-73
2021/11/09 08:39:00;;;;;;;14.77;10.85;;;;;;;9.99;67.06;95554.75;5091021;28;20024;-73
2021/11/09 08:41:27;;;;;;;12.93;9.35;;;;;;;10.03;67.13;95555.38;5073412;28;20028;-73
2021/11/09 08:44:00;;;;;;;15.68;11.00;;;;;;;9.99;67.03;95554.75;5073406;28;20047;-73
2021/11/09 08:46:29;;;;;;;13.70;10.35;;;;;;;10.12;67.19;95559.13;5089564;28;20028;-73
2021/11/09 08:48:55;;;;;;;16.13;11.88;;;;;;;10.13;67.20;95566.78;5089687;28;20032;-73
2021/11/09 08:51:21;;;;;;;13.77;10.13;;;;;;;10.05;66.97;95563.88;5090809;28;20039;-73
2021/11/09 08:53:56;;;;;;;15.68;10.50;;;;;;;10.11;66.62;95567.81;5089584;28;20028;-74
2021/11/09 09:06:38;;;;;;;26.98;18.95;;;;;;;10.09;66.30;95569.72;5054167;28;20036;-73
2021/11/09 09:09:03;;;;;;;19.40;13.27;;;;;;;10.07;66.36;95564.63;5070653;28;20078;-74
2021/11/09 09:11:32;;;;;;;14.77;11.02;;;;;;;10.11;66.25;95570.41;5069161;28;20051;-73
2021/11/09 09:13:58;;;;;;;14.93;11.27;;;;;;;10.11;66.24;95566.03;5069502;28;20433;-73
2021/11/09 09:16:25;;;;;;;14.35;9.90;;;;;;;10.15;65.92;95567.50;5069144;28;20028;-73
2021/11/09 09:18:51;;;;;;;14.48;11.23;;;;;;;10.16;65.94;95568.34;5069196;28;20063;-73
2021/11/09 09:21:25;;;;;;;21.48;15.45;;;;;;;10.16;66.02;95571.75;5052495;28;20032;-73
2021/11/09 09:23:55;;;;;;;14.85;9.98;;;;;;;10.17;65.69;95573.44;5069257;28;20093;-73
2021/11/09 09:26:45;;;;;;;14.15;8.90;;;;;;;10.12;65.85;95583.31;5070359;28;20063;-73
2021/11/09 09:55:40;;;;;;;30.92;17.50;;;;;;;10.21;64.14;95642.38;5072552;28;20032;-73
2021/11/09 09:58:11;;;;;;;55.70;29.45;;;;;;;10.22;62.83;95630.22;5039325;28;20098;-73
2021/11/09 10:00:37;;;;;;;;;;;;;;;10.15;62.68;95624.63;5056514;28;20143;-73
2021/11/09 10:03:03;;;;;;;17.50;12.00;;;;;;;9.97;63.44;95642.31;5073542;28;19959;-73
2021/11/09 10:05:38;;;;;;;13.95;9.73;;;;;;;9.98;63.58;95664.72;5073366;28;20478;-74
2021/11/09 10:08:13;;;;;;;16.55;9.90;;;;;;;9.81;63.92;95645.09;5056749;28;20046;-73
2021/11/09 10:10:39;;;;;;;15.57;10.77;;;;;;;9.81;63.87;95650.28;5072190;28;20056;-73
2021/11/09 10:13:10;;;;;;;13.32;8.07;;;;;;;9.76;63.47;95670.50;5073860;28;20463;-73
2021/11/09 10:15:37;;;;;;;14.23;9.70;;;;;;;9.76;63.88;95680.88;5055971;28;20434;-74
2021/11/09 10:18:06;;;;;;;14.50;9.38;;;;;;;9.77;63.88;95673.91;5072120;28;20041;-73
2021/11/09 10:20:56;;;;;;;15.57;8.55;;;;;;;9.68;63.92;95680.53;5073168;28;20456;-73
2021/11/09 10:23:24;;;;;;;13.20;8.40;;;;;;;9.56;64.28;95666.63;5066665;28;20044;-73
2021/11/09 10:25:54;;;;;;;14.35;10.00;;;;;;;9.51;64.40;95673.03;5071799;28;20029;-73
2021/11/09 10:28:23;;;;;;;20.25;12.52;;;;;;;9.54;64.50;95683.22;5055917;28;20036;-73
2021/11/09 10:30:58;;;;;;;16.40;11.68;;;;;;;9.57;64.50;95683.84;5071859;28;20574;-73
2021/11/09 10:33:25;;;;;;;15.27;11.55;;;;;;;9.56;64.71;95696.91;5072961;28;20033;-73
2021/11/09 10:35:54;;;;;;;19.10;15.00;;;;;;;9.55;64.91;95701.25;5055177;28;20028;-73
2021/11/09 10:38:31;;;;;;;17.42;11.27;;;;;;;9.60;65.29;95703.56;5071873;28;20033;-73
2021/11/09 10:40:57;;;;;;;13.52;9.77;;;;;;;9.55;65.62;95685.69;5071830;28;20055;-73
2021/11/09 10:43:23;;;;;;;13.07;8.85;;;;;;;9.42;66.41;95690.03;5071600;28;20029;-73
2021/11/09 10:45:48;;;;;;;14.55;10.00;;;;;;;9.48;66.40;95700.00;5069961;28;20077;-73
2021/11/09 10:48:16;;;;;;;12.80;9.60;;;;;;;9.47;66.65;95703.53;5071145;28;20501;-73
2021/11/09 10:50:47;;;;;;;11.43;8.18;;;;;;;9.50;67.01;95707.66;5071492;28;20490;-73
2021/11/09 10:53:18;;;;;;;12.02;8.98;;;;;;;9.49;67.23;95704.25;5038121;28;20537;-73
2021/11/09 11:04:02;;;;;;;12.93;9.63;;;;;;;9.51;68.31;95719.72;5071613;28;19927;-74
2021/11/09 11:06:29;;;;;;;18.77;10.75;;;;;;;9.55;67.86;95716.00;5071316;28;20609;-74
2021/11/09 11:08:57;;;;;;;17.50;11.57;;;;;;;9.48;68.38;95725.13;5072742;28;20028;-74
2021/11/09 11:11:33;;;;;;;13.15;10.27;;;;;;;9.43;68.69;95733.19;5054523;28;20461;-74
2021/11/09 11:14:13;;;;;;;14.98;10.05;;;;;;;9.35;68.47;95743.19;5070389;28;20491;-74
2021/11/09 11:16:52;;;;;;;13.02;9.05;;;;;;;9.25;68.59;95742.97;5071024;28;20029;-74
2021/11/09 11:19:19;;;;;;;19.13;11.27;;;;;;;9.17;68.71;95745.19;5072330;28;20094;-73
2021/11/09 11:21:45;;;;;;;18.70;12.25;;;;;;;9.03;70.41;95740.88;5054367;28;20459;-74
2021/11/09 11:24:13;;;;;;;16.80;11.35;;;;;;;9.09;70.21;95750.03;5054422;28;20033;-74
2021/11/09 11:26:38;;;;;;;19.27;11.88;;;;;;;9.07;70.49;95746.69;5072111;28;20033;-74
2021/11/09 11:29:06;;;;;;;15.50;11.43;;;;;;;9.01;71.50;95744.50;5070849;28;20158;-74
2021/11/09 11:31:32;;;;;;;23.65;16.42;;;;;;;9.16;71.23;95759.06;5070723;28;20040;-73
2021/11/09 11:33:58;;;;;;;21.23;11.05;;;;;;;9.05;69.88;95753.72;5070692;28;20021;-74
2021/11/09 11:36:24;;;;;;;19.13;10.05;;;;;;;8.99;70.13;95749.75;5071802;28;20052;-74
2021/11/09 11:38:51;;;;;;;14.38;11.05;;;;;;;8.99;69.97;95744.56;5054026;28;20067;-74
2021/11/09 11:41:17;;;;;;;17.80;9.82;;;;;;;9.02;70.42;95749.56;5053897;28;20218;-73
2021/11/09 11:43:42;;;;;;;13.50;10.02;;;;;;;9.02;71.34;95759.94;5070650;28;20032;-73
2021/11/09 11:46:37;;;;;;;19.38;11.23;;;;;;;9.06;71.25;95769.19;5071571;28;20033;-74
2021/11/09 11:49:12;;;;;;;14.40;8.88;;;;;;;9.05;70.13;95754.56;5070529;28;20036;-74
2021/11/09 11:51:44;;;;;;;21.88;12.40;;;;;;;9.13;70.29;95769.63;5037593;28;20579;-73
2021/11/09 11:54:09;;;;;;;;;;;;;;;9.18;69.86;95783.16;5072109;28;20044;-73
2021/11/09 11:56:44;;;;;;;21.05;11.63;;;;;;;9.12;70.43;95791.31;5071762;28;19916;-74
2021/11/09 11:59:22;;;;;;;11.70;8.25;;;;;;;9.15;69.59;95807.50;5071716;28;20032;-74
2021/11/09 12:01:51;;;;;;;9.55;6.55;;;;;;;8.98;68.60;95799.09;5070197;28;20045;-74
2021/11/09 12:04:35;;;;;;;6.88;5.22;;;;;;;9.05;68.57;95823.72;5071781;28;20017;-74
2021/11/09 12:07:02;;;;;;;7.07;5.78;;;;;;;9.02;68.79;95826.50;5071797;28;20401;-74
2021/11/09 12:09:32;;;;;;;10.25;7.30;;;;;;;8.97;68.44;95829.38;5070015;28;20387;-74
2021/11/09 12:12:21;;;;;;;11.35;8.02;;;;;;;8.97;68.05;95844.94;5070217;28;20461;-74
2021/11/09 12:15:13;;;;;;;13.13;7.97;;;;;;;8.84;68.28;95851.75;5049634;28;20466;-74
2021/11/09 12:17:40;;;;;;;8.73;4.68;;;;;;;8.74;68.54;95859.22;5050596;28;20044;-74
2021/11/09 12:20:15;;;;;;;8.48;5.05;;;;;;;8.71;68.77;95870.59;5036882;28;20021;-74
2021/11/09 12:22:52;;;;;;;8.77;5.40;;;;;;;8.64;67.93;95863.31;5053462;28;20474;-74
2021/11/09 12:25:33;;;;;;;7.38;5.32;;;;;;;8.55;68.58;95872.41;5038064;28;20111;-74
2021/11/09 12:28:09;;;;;;;6.13;4.85;;;;;;;8.40;69.14;95860.38;5070294;28;20052;-74
2021/11/09 12:30:38;;;;;;;7.13;4.93;;;;;;;8.38;69.88;95869.94;5053886;28;20037;-74
2021/11/09 12:33:10;;;;;;;9.50;7.30;;;;;;;8.31;70.72;95872.06;5071657;28;20032;-74
2021/11/09 12:35:36;;;;;;;8.30;6.35;;;;;;;8.39;70.93;95867.31;5069871;28;20460;-74
2021/11/09 12:38:01;;;;;;;17.13;9.85;;;;;;;8.38;70.51;95873.34;5070181;28;20043;-74
2021/11/09 12:40:46;;;;;;;9.40;5.90;;;;;;;8.37;70.08;95881.22;5071176;28;20021;-74
2021/11/09 12:43:16;;;;;;;8.00;5.57;;;;;;;8.26;70.42;95859.38;5071608;28;20036;-73
2021/11/09 12:46:08;;;;;;;11.43;8.45;;;;;;;8.39;71.32;95879.44;5070909;28;20021;-74
2021/11/09 12:48:36;;;;;;;30.35;19.45;;;;;;;8.38;70.30;95881.13;5071292;28;20028;-74
2021/11/09 12:51:07;;;;;;;20.67;12.73;;;;;;;8.32;71.44;95878.06;5052819;28;20448;-74
2021/11/09 12:53:40;;;;;;;9.45;4.80;;;;;;;8.26;70.37;95879.25;5069791;28;20021;-74
2021/11/09 12:56:15;;;;;;;6.93;4.32;;;;;;;8.31;69.80;95889.34;5053423;28;20089;-74
2021/11/09 12:58:58;;;;;;;7.93;3.58;;;;;;;8.19;70.09;95883.09;5037842;28;20419;-74
2021/11/09 13:09:27;;;;;;;4.78;3.90;;;;;;;8.28;70.39;95874.81;5074332;28;20032;-74
2021/11/09 13:11:58;;;;;;;5.05;4.00;;;;;;;8.33;69.49;95869.38;5057500;28;20036;-74
2021/11/09 13:14:30;;;;;;;;;;;;;;;8.34;68.83;95876.22;5058295;28;20031;-74
2021/11/09 13:16:55;;;;;;;5.97;4.55;;;;;;;8.31;69.21;95882.41;5073906;28;19920;-74
2021/11/09 13:19:25;;;;;;;6.00;4.40;;;;;;;8.20;68.42;95884.78;5075054;28;20024;-74
2021/11/09 13:22:14;;;;;;;8.73;5.82;;;;;;;8.24;68.96;95906.97;5057133;28;20032;-74
2021/11/09 13:25:08;;;;;;;9.02;4.13;;;;;;;8.24;67.76;95906.97;5058443;28;20392;-74
2021/11/09 13:27:38;;;;;;;7.13;4.05;;;;;;;8.23;68.29;95918.25;5073731;28;20037;-74
2021/11/09 13:30:14;;;;;;;5.18;3.30;;;;;;;8.16;68.95;95909.16;5073275;28;20051;-74
2021/11/09 13:32:40;;;;;;;5.55;2.88;;;;;;;8.15;68.26;95920.44;5074767;28;20123;-74
2021/11/09 13:35:29;;;;;;;4.10;3.10;;;;;;;8.12;68.70;95923.19;5073285;28;20024;-74
2021/11/09 13:38:22;;;;;;;12.63;5.47;;;;;;;8.14;68.56;95934.31;5075138;28;20066;-74
2021/11/09 13:41:15;;;;;;;5.63;3.95;;;;;;;8.06;68.86;95940.72;5070536;28;20037;-73
2021/11/09 13:43:42;;;;;;;7.93;6.13;;;;;;;8.10;68.87;95940.56;5074593;28;20036;-74
2021/11/09 13:46:12;;;;;;;11.00;6.85;;;;;;;8.15;68.81;95933.38;5056546;28;20036;-73
2021/11/09 13:48:39;;;;;;;4.50;3.13;;;;;;;8.14;67.80;95931.72;5073215;28;20032;-74